createdAt,value
2022-10-17T18:44:16.552Z,102956.42
2022-10-17T18:49:18.615Z,102959.42
2022-10-17T18:51:46.530Z,102959.75
2022-10-17T18:54:20.048Z,102960.40
2022-10-17T18:56:50.558Z,102960.02
2022-10-17T18:59:19.355Z,102959.70
2022-10-17T19:01:46.974Z,102957.52
2022-10-17T19:04:14.812Z,102957.42
2022-10-17T19:06:42.709Z,102959.36
2022-10-17T19:09:12.477Z,102959.07
2022-10-17T19:11:40.173Z,102962.96
2022-10-17T19:14:12.444Z,102965.55
2022-10-17T19:16:48.777Z,102967.30
2022-10-17T19:19:25.432Z,102968.61
2022-10-17T19:21:57.659Z,102970.95
2022-10-17T19:24:30.074Z,102969.42
2022-10-17T19:27:02.095Z,102968.50
2022-10-17T19:29:32.897Z,102973.48
2022-10-17T19:32:00.496Z,102973.38
2022-10-17T19:34:27.722Z,102974.55
2022-10-17T19:36:55.343Z,102973.59
2022-10-17T19:39:23.417Z,102971.62
2022-10-17T19:41:50.552Z,102970.52
2022-10-17T19:44:18.001Z,102970.29
2022-10-17T19:46:46.400Z,102972.67
2022-10-17T19:49:13.978Z,102970.62
2022-10-17T19:51:41.580Z,102967.21
2022-10-17T19:54:09.144Z,102967.17
2022-10-17T19:56:37.823Z,102965.66
2022-10-17T19:59:06.511Z,102970.73
2022-10-17T20:01:38.337Z,102967.97
2022-10-17T20:04:08.293Z,102966.79
2022-10-17T20:06:35.829Z,102967.70
2022-10-17T20:09:04.742Z,102960.50
2022-10-17T20:11:32.044Z,102956.21
2022-10-17T20:14:01.414Z,102953.50
2022-10-17T20:16:33.071Z,102954.98
2022-10-17T20:19:08.121Z,102957.36
2022-10-17T20:21:39.064Z,102958.94
2022-10-17T20:24:11.732Z,102960.54
2022-10-17T20:26:40.067Z,102960.58
2022-10-17T20:29:17.941Z,102959.78
2022-10-17T20:31:46.797Z,102961.84
2022-10-17T20:34:17.512Z,102956.74
2022-10-17T20:36:45.518Z,102957.64
2022-10-17T20:39:14.674Z,102960.08
2022-10-17T20:41:43.346Z,102958.40
2022-10-17T20:44:11.568Z,102957.71
2022-10-17T20:46:44.760Z,102964.23
2022-10-17T20:49:18.408Z,102965.37
2022-10-17T20:51:46.078Z,102968.78
2022-10-17T20:54:13.295Z,102972.02
2022-10-17T20:56:40.551Z,102969.20
2022-10-17T20:59:14.373Z,102966.95
2022-10-17T21:01:41.919Z,102965.63
2022-10-17T21:06:57.785Z,102964.17
2022-10-17T21:09:25.177Z,102967.21
2022-10-17T21:11:55.420Z,102963.83
2022-10-17T21:14:24.234Z,102964.02
2022-10-17T21:16:51.756Z,102964.66
2022-10-17T21:19:19.139Z,102963.70
2022-10-17T21:21:46.351Z,102959.48
2022-10-17T21:24:17.327Z,102958.44
2022-10-17T21:26:46.450Z,102958.30
2022-10-17T21:29:13.809Z,102959.13
2022-10-17T21:31:43.521Z,102960.38
2022-10-17T21:34:18.164Z,102957.02
2022-10-17T21:36:45.341Z,102962.95
2022-10-17T21:39:14.153Z,102964.39
2022-10-17T21:41:42.062Z,102964.25
2022-10-17T21:44:21.741Z,102964.23
2022-10-17T21:46:49.439Z,102966.41
2022-10-17T21:49:19.830Z,102961.13
2022-10-17T21:51:48.015Z,102960.69
2022-10-17T21:54:16.604Z,102961.16
2022-10-17T21:56:44.463Z,102962.65
2022-10-17T21:59:12.365Z,102963.77
2022-10-17T22:01:43.133Z,102965.78
2022-10-17T22:04:14.537Z,102965.59
2022-10-17T22:06:43.298Z,102963.52
2022-10-17T22:09:21.683Z,102964.30
2022-10-17T22:11:52.593Z,102960.27
2022-10-17T22:14:22.859Z,102959.21
2022-10-17T22:16:50.219Z,102956.02
2022-10-17T22:19:24.139Z,102956.30
2022-10-17T22:21:51.842Z,102955.54
2022-10-17T22:26:48.807Z,102954.73
2022-10-17T22:29:16.002Z,102953.49
2022-10-17T22:31:43.277Z,102951.88
2022-10-17T22:34:13.691Z,102952.34
2022-10-17T22:36:42.123Z,102955.48
2022-10-17T22:39:10.188Z,102955.31
2022-10-17T22:41:37.338Z,102954.98
2022-10-17T22:44:05.187Z,102957.06
2022-10-17T22:46:32.304Z,102955.80
2022-10-17T22:48:59.449Z,102951.84
2022-10-17T22:51:27.219Z,102946.23
2022-10-17T22:53:54.589Z,102944.11
2022-10-17T22:56:23.119Z,102939.24
2022-10-17T22:58:50.437Z,102938.31
2022-10-17T23:01:21.757Z,102941.09
2022-10-17T23:03:50.171Z,102939.52
2022-10-17T23:06:18.403Z,102938.00
2022-10-17T23:08:45.762Z,102933.59
2022-10-17T23:11:12.912Z,102931.66
2022-10-17T23:13:40.367Z,102931.31
2022-10-17T23:16:08.001Z,102931.55
2022-10-17T23:18:36.151Z,102928.11
2022-10-17T23:21:03.795Z,102921.80
2022-10-17T23:23:30.814Z,102920.16
2022-10-17T23:26:11.190Z,102918.53
2022-10-17T23:28:39.327Z,102921.85
2022-10-17T23:31:19.003Z,102922.04
2022-10-17T23:33:48.301Z,102921.06
2022-10-17T23:36:18.659Z,102918.90
2022-10-17T23:38:47.019Z,102915.52
2022-10-17T23:41:15.137Z,102914.56
2022-10-17T23:43:44.246Z,102912.24
2022-10-17T23:46:12.185Z,102910.61
2022-10-17T23:48:40.220Z,102909.35
2022-10-17T23:51:09.048Z,102909.65
2022-10-17T23:53:37.654Z,102906.94
2022-10-17T23:56:06.719Z,102906.58
2022-10-17T23:58:38.107Z,102905.16
